Terminal Aerodrome Forecast
Issued by NWS Wilmington, OH

Current Version | Previous Version | Text Only | Print | Product List | Glossary Off
Versions: 1 2 3 4 5 6 7 8 9 10 11 12 13 14 15 16 17 18 19 20 21

000
FTUS41 KILN 170500
TAFDAY
TAF
KDAY 170529Z 1706/1806 22005KT P6SM BKN035
      TEMPO 1706/1709 4SM BR BKN020
     FM170900 28005KT 4SM BR SCT015
      TEMPO 1709/1712 2SM BR BKN012
     FM171200 34006KT P6SM BKN025
     FM171400 35008KT P6SM SKC
     FM172300 30003KT P6SM SCT250=

USA.gov is the U.S. government's official web portal to all federal, state and local government web resources and services.